Nearby METAR Reports

 

KHOB - Hobbs, New Mexico, USA
Distance from station: S 40mi, 65km
Updated: Thu, 12-Dec-2019 9:20am MST
Few Clouds
Few Clouds
 Wind from WSW
Wind: WSW 8 mph , 13 km/h
Temperature: 43°F , 6°C
Wind Chill: 38°F , 3°C
Dew Point: 43°F , 6°C
Humidity: 100%
Barometer: 30.17 inHg , 1021.7 hPa
Clouds: Few Clouds
Visibility: 10 miles , 16 km
Cloud details: Few Clouds 400 ft
2019/12/12 16:20 KHOB 121620Z 24007KT 10SM FEW004 06/06 A3017
KGNC - Seminole, Texas, USA
Distance from station: SE 55mi, 89km
Updated: Thu, 12-Dec-2019 9:35am MST
Overcast
Overcast
 Wind from WSW
Wind: WSW 9 mph , 15 km/h
Barometer: 30.21 inHg , 1023 hPa
Clouds: Overcast
Visibility: 10 miles , 16 km
Cloud details: Overcast 300 ft
2019/12/12 16:35 KGNC 121635Z AUTO 25008KT 10SM OVC003 A3021 RMK AO2
 
KROW - Roswell, New Mexico, USA
Distance from station: W 67mi, 108km
Updated: Thu, 12-Dec-2019 9:21am MST
Mist, Overcast
Mist, Overcast
 Wind from SE
Wind: SE 3 mph , 6 km/h
Temperature: 37°F , 3°C
Dew Point: 34°F , 1°C
Humidity: 87%
Barometer: 30.16 inHg , 1021.3 hPa
Summary: Mist
Clouds: Overcast
Visibility: 1/2 mile , 0.8 km
Cloud details: Overcast 200 ft
2019/12/12 16:21 KROW 121621Z 13003KT 1/2SM BR OVC002 03/01 A3016 RMK AO2 SFC VIS 1 T00280011 $
KATS - Artesia, New Mexico, USA
Distance from station: WSW 71mi, 114km
Updated: Thu, 12-Dec-2019 9:35am MST
Mostly cloudy
Mostly cloudy
 Wind from calm
Wind: Calm
Temperature: 37°F , 3°C
Dew Point: 37°F , 3°C
Humidity: 100%
Barometer: 30.20 inHg , 1022.7 hPa
Clouds: Mostly cloudy
Visibility: 8 miles , 13 km
Cloud details: Mostly cloudy 100 ft
2019/12/12 16:35 KATS 121635Z AUTO 00000KT 8SM BKN001 03/03 A3020 RMK AO2
 
KCVS - Cannon AFB,Clovis, New Mexico, USA
Distance from station: 0 78mi, 125km
Updated: Thu, 12-Dec-2019 8:58am MST
Clear
Clear
 Wind from WNW
Wind: WNW 16 mph , 26 km/h
Temperature: 41°F , 5°C
Wind Chill: 33°F , 1°C
Dew Point: 36°F , 2°C
Humidity: 81%
Barometer: 30.13 inHg , 1020.3 hPa
Clouds: Clear
Visibility: 10 miles , 16 km
2019/12/12 15:58 KCVS 121558Z 30014KT 10SM CLR 05/02 A3013 RMK AO2A SLP203 T00500017 $
KE11 - Andrews, Texas, USA
Distance from station: SE 78mi, 126km
Updated: Thu, 12-Dec-2019 9:35am MST
Mist, Overcast
Mist, Overcast
 Wind from WSW
Wind: WSW 8 mph , 13 km/h
Temperature: 41°F , 5°C
Wind Chill: 36°F , 2°C
Dew Point: 41°F , 5°C
Humidity: 100%
Barometer: 30.18 inHg , 1022 hPa
Summary: Mist
Clouds: Overcast
Visibility: 2 1/2 miles , 4 km
Cloud details: Overcast 200 ft
2019/12/12 16:35 KE11 121635Z AUTO 25007KT 2 1/2SM BR OVC002 05/05 A3018 RMK AO2 T00490049
 
KCNM - Carlsbad, New Mexico, USA
Distance from station: SW 82mi, 132km
Updated: Thu, 12-Dec-2019 8:53am MST
Fog, Overcast
Fog, Overcast
 Wind from N
Wind: N 3 mph , 6 km/h
Temperature: 39°F , 4°C
Dew Point: 39°F , 4°C
Humidity: 100%
Barometer: 30.17 inHg , 1021.7 hPa
Summary: Fog
Clouds: Overcast
Visibility: 1/4 mile , 0.4 km
Cloud details: Overcast 200 ft
2019/12/12 15:53 KCNM 121553Z AUTO 35003KT 1/4SM FG VV002 04/04 A3017 RMK AO2 SLP208 T00390039
KCVN - Clovis Muni, New Mexico, USA
Distance from station: N 83mi, 133km
Updated: Thu, 12-Dec-2019 8:56am MST
Clear
Clear
 Wind from WNW
Wind: WNW 15 mph , 24 km/h
Temperature: 43°F , 6°C
Wind Chill: 36°F , 2°C
Dew Point: 34°F , 1°C
Humidity: 71%
Barometer: 30.13 inHg , 1020.3 hPa
Clouds: Clear
Visibility: 10 miles , 16 km
2019/12/12 15:56 KCVN 121556Z AUTO 30013KT 10SM CLR 06/01 A3013 RMK AO2 SLP209 T00560011
 
KLBB - Lubbock, Texas, USA
Distance from station: ENE 92mi, 149km
Updated: Thu, 12-Dec-2019 8:53am MST
Few Clouds
Few Clouds
 Wind from WSW
Wind: WSW 14 mph , 22 km/h
Temperature: 46°F , 8°C
Wind Chill: 40°F , 4°C
Dew Point: 39°F , 4°C
Humidity: 76%
Barometer: 30.11 inHg , 1019.6 hPa
Clouds: Few Clouds
Visibility: 10 miles , 16 km
Cloud details: Few Clouds 1000 ft
Few Clouds 25000 ft
2019/12/12 15:53 KLBB 121553Z 24012KT 10SM FEW010 FEW250 08/04 A3011 RMK AO2 SLP188 T00830039
KINK - Wink, Texas, USA
Distance from station: S 101mi, 163km
Updated: Thu, 12-Dec-2019 8:53am MST
Clear
Clear
 Wind from calm
Wind: Calm
Temperature: 43°F , 6°C
Dew Point: 39°F , 4°C
Humidity: 87%
Barometer: 30.18 inHg , 1022 hPa
Clouds: Clear
Visibility: 10 miles , 16 km
2019/12/12 15:53 KINK 121553Z AUTO 00000KT 10SM CLR 06/04 A3018 RMK AO2 SLP210 T00610044
 
KMAF - Midland, Texas, USA
Distance from station: SE 111mi, 179km
Updated: Thu, 12-Dec-2019 8:53am MST
Clear
Clear
 Wind from SSW
Wind: SSW 7 mph , 11 km/h
Temperature: 45°F , 7°C
Wind Chill: 41°F , 5°C
Dew Point: 37°F , 3°C
Humidity: 76%
Barometer: 30.17 inHg , 1021.7 hPa
Clouds: Clear
Visibility: 10 miles , 16 km
2019/12/12 15:53 KMAF 121553Z 21006KT 10SM CLR 07/03 A3017 RMK AO2 SLP206 T00720033
KSRR - Sierra B/Ruidoso, New Mexico, USA
Distance from station: W 127mi, 204km
Updated: Thu, 12-Dec-2019 9:35am MST
Clear
Clear
 Wind from NE
Wind: NE 6 mph , 9 km/h
Temperature: 45°F , 7°C
Wind Chill: 42°F , 6°C
Dew Point: 18°F , -8°C
Humidity: 34%
Barometer: 30.26 inHg , 1024.7 hPa
Clouds: Clear
Visibility: 10 miles , 16 km
2019/12/12 16:35 KSRR 121635Z AUTO 04005KT 10SM CLR 07/M08 A3026 RMK AO2
 
KGDP - Guadalupe Pass, Texas, USA
Distance from station: SW 130mi, 209km
Updated: Thu, 12-Dec-2019 9:36am MST
Fog, Overcast
Fog, Overcast
 Wind from SW
Wind: SW 24 mph , 39 km/h
Temperature: 36°F , 2°C
Wind Chill: 24°F , -4°C
Dew Point: 36°F , 2°C
Humidity: 100%
Barometer: 30.23 inHg , 1023.7 hPa
Summary: Fog
Clouds: Overcast
Visibility: less than 1/4 mile , 0.4 km
Cloud details: Overcast 200 ft
2019/12/12 16:36 KGDP 121636Z AUTO 23021KT M1/4SM FG VV002 02/02 A3023 RMK AO2 PK WND 23026/1619 T00220022